sensor_id;sensor_type;location;lat;lon;timestamp;P1;durP1;ratioP1;P2;durP2;ratioP2
79401;SDS011;68857;47.916;106.940;2023-04-28T00:00:57;9.98;;;4.30;;
79401;SDS011;68857;47.916;106.940;2023-04-28T00:05:51;8.63;;;4.85;;
79401;SDS011;68857;47.916;106.940;2023-04-28T00:08:18;11.93;;;6.60;;
79401;SDS011;68857;47.916;106.940;2023-04-28T00:10:46;11.20;;;5.53;;
79401;SDS011;68857;47.916;106.940;2023-04-28T00:13:12;10.43;;;5.55;;
79401;SDS011;68857;47.916;106.940;2023-04-28T00:18:05;11.68;;;5.20;;
79401;SDS011;68857;47.916;106.940;2023-04-28T00:20:32;12.23;;;5.93;;
79401;SDS011;68857;47.916;106.940;2023-04-28T00:25:24;14.07;;;6.57;;
79401;SDS011;68857;47.916;106.940;2023-04-28T00:27:51;16.10;;;6.63;;
79401;SDS011;68857;47.916;106.940;2023-04-28T00:32:43;15.98;;;7.15;;
79401;SDS011;68857;47.916;106.940;2023-04-28T00:35:10;29.42;;;9.48;;
79401;SDS011;68857;47.916;106.940;2023-04-28T00:37:37;23.75;;;7.93;;
79401;SDS011;68857;47.916;106.940;2023-04-28T00:40:04;23.17;;;8.13;;
79401;SDS011;68857;47.916;106.940;2023-04-28T00:42:30;20.23;;;7.90;;
79401;SDS011;68857;47.916;106.940;2023-04-28T00:44:57;23.10;;;7.97;;
79401;SDS011;68857;47.916;106.940;2023-04-28T00:47:30;20.48;;;9.25;;
79401;SDS011;68857;47.916;106.940;2023-04-28T00:49:57;18.08;;;7.35;;
79401;SDS011;68857;47.916;106.940;2023-04-28T00:52:24;19.60;;;9.50;;
79401;SDS011;68857;47.916;106.940;2023-04-28T00:54:50;23.98;;;7.28;;
79401;SDS011;68857;47.916;106.940;2023-04-28T00:57:17;18.13;;;6.55;;
79401;SDS011;68857;47.916;106.940;2023-04-28T00:59:44;17.63;;;7.03;;
79401;SDS011;68857;47.916;106.940;2023-04-28T01:02:11;15.07;;;6.40;;
79401;SDS011;68857;47.916;106.940;2023-04-28T01:04:44;18.30;;;7.25;;
79401;SDS011;68857;47.916;106.940;2023-04-28T01:07:11;15.15;;;6.43;;
79401;SDS011;68857;47.916;106.940;2023-04-28T01:09:37;15.57;;;5.40;;
79401;SDS011;68857;47.916;106.940;2023-04-28T01:12:04;15.65;;;7.05;;
79401;SDS011;68857;47.916;106.940;2023-04-28T01:14:31;13.95;;;6.05;;
79401;SDS011;68857;47.916;106.940;2023-04-28T01:16:58;17.15;;;6.47;;
79401;SDS011;68857;47.916;106.940;2023-04-28T01:19:25;14.75;;;6.00;;
79401;SDS011;68857;47.916;106.940;2023-04-28T01:21:52;13.50;;;5.72;;
79401;SDS011;68857;47.916;106.940;2023-04-28T01:24:18;14.27;;;5.32;;
79401;SDS011;68857;47.916;106.940;2023-04-28T01:26:45;13.00;;;6.70;;
79401;SDS011;68857;47.916;106.940;2023-04-28T01:29:11;14.32;;;5.45;;
79401;SDS011;68857;47.916;106.940;2023-04-28T01:31:38;11.48;;;6.07;;
79401;SDS011;68857;47.916;106.940;2023-04-28T01:34:05;9.65;;;5.57;;
79401;SDS011;68857;47.916;106.940;2023-04-28T01:36:32;11.70;;;4.82;;
79401;SDS011;68857;47.916;106.940;2023-04-28T01:38:58;12.70;;;4.97;;
79401;SDS011;68857;47.916;106.940;2023-04-28T01:41:25;10.50;;;4.57;;
79401;SDS011;68857;47.916;106.940;2023-04-28T01:43:51;10.55;;;4.80;;
79401;SDS011;68857;47.916;106.940;2023-04-28T01:46:18;8.55;;;4.50;;
79401;SDS011;68857;47.916;106.940;2023-04-28T01:48:44;8.80;;;4.15;;
79401;SDS011;68857;47.916;106.940;2023-04-28T01:51:11;9.00;;;4.75;;
79401;SDS011;68857;47.916;106.940;2023-04-28T01:53:38;7.80;;;4.70;;
79401;SDS011;68857;47.916;106.940;2023-04-28T01:56:04;8.98;;;4.22;;
79401;SDS011;68857;47.916;106.940;2023-04-28T01:58:31;11.43;;;4.28;;
79401;SDS011;68857;47.916;106.940;2023-04-28T02:00:58;9.27;;;4.60;;
79401;SDS011;68857;47.916;106.940;2023-04-28T02:03:24;8.00;;;4.78;;
79401;SDS011;68857;47.916;106.940;2023-04-28T02:05:52;8.45;;;4.72;;
79401;SDS011;68857;47.916;106.940;2023-04-28T02:08:19;10.30;;;5.28;;
79401;SDS011;68857;47.916;106.940;2023-04-28T02:10:45;13.88;;;6.60;;
79401;SDS011;68857;47.916;106.940;2023-04-28T02:13:12;7.85;;;4.30;;
79401;SDS011;68857;47.916;106.940;2023-04-28T02:15:41;6.78;;;3.35;;
79401;SDS011;68857;47.916;106.940;2023-04-28T02:18:09;7.97;;;3.88;;
79401;SDS011;68857;47.916;106.940;2023-04-28T02:20:35;7.55;;;4.00;;
79401;SDS011;68857;47.916;106.940;2023-04-28T02:23:02;8.20;;;3.92;;
79401;SDS011;68857;47.916;106.940;2023-04-28T02:25:29;7.13;;;3.97;;
79401;SDS011;68857;47.916;106.940;2023-04-28T02:27:56;5.97;;;3.88;;
79401;SDS011;68857;47.916;106.940;2023-04-28T02:30:23;7.47;;;4.32;;
79401;SDS011;68857;47.916;106.940;2023-04-28T02:32:50;5.75;;;3.90;;
79401;SDS011;68857;47.916;106.940;2023-04-28T02:35:17;7.63;;;3.95;;
79401;SDS011;68857;47.916;106.940;2023-04-28T02:37:43;7.32;;;4.25;;
79401;SDS011;68857;47.916;106.940;2023-04-28T02:40:11;7.13;;;3.88;;
79401;SDS011;68857;47.916;106.940;2023-04-28T02:42:37;6.00;;;3.65;;
79401;SDS011;68857;47.916;106.940;2023-04-28T02:45:04;6.78;;;4.20;;
79401;SDS011;68857;47.916;106.940;2023-04-28T02:47:30;7.35;;;3.88;;
79401;SDS011;68857;47.916;106.940;2023-04-28T02:49:57;5.88;;;3.88;;
79401;SDS011;68857;47.916;106.940;2023-04-28T02:52:24;6.00;;;3.75;;
79401;SDS011;68857;47.916;106.940;2023-04-28T02:54:50;5.80;;;3.92;;
79401;SDS011;68857;47.916;106.940;2023-04-28T02:57:21;6.15;;;3.65;;
79401;SDS011;68857;47.916;106.940;2023-04-28T02:59:48;6.30;;;3.92;;
79401;SDS011;68857;47.916;106.940;2023-04-28T03:02:14;5.63;;;3.90;;
79401;SDS011;68857;47.916;106.940;2023-04-28T03:04:41;5.18;;;3.42;;
79401;SDS011;68857;47.916;106.940;2023-04-28T03:07:08;8.63;;;3.92;;
79401;SDS011;68857;47.916;106.940;2023-04-28T03:09:34;4.90;;;3.20;;
79401;SDS011;68857;47.916;106.940;2023-04-28T03:12:01;5.97;;;3.80;;
79401;SDS011;68857;47.916;106.940;2023-04-28T03:14:27;5.78;;;3.92;;
79401;SDS011;68857;47.916;106.940;2023-04-28T03:16:55;5.32;;;3.60;;
79401;SDS011;68857;47.916;106.940;2023-04-28T03:19:22;7.45;;;3.85;;
79401;SDS011;68857;47.916;106.940;2023-04-28T03:21:48;4.47;;;3.00;;
79401;SDS011;68857;47.916;106.940;2023-04-28T03:24:15;7.20;;;3.45;;
79401;SDS011;68857;47.916;106.940;2023-04-28T03:26:41;5.00;;;3.10;;
79401;SDS011;68857;47.916;106.940;2023-04-28T03:29:08;7.07;;;3.67;;
79401;SDS011;68857;47.916;106.940;2023-04-28T03:31:34;8.48;;;4.38;;
79401;SDS011;68857;47.916;106.940;2023-04-28T03:34:01;5.88;;;3.30;;
79401;SDS011;68857;47.916;106.940;2023-04-28T03:36:28;7.15;;;4.03;;
79401;SDS011;68857;47.916;106.940;2023-04-28T03:38:55;5.15;;;3.00;;
79401;SDS011;68857;47.916;106.940;2023-04-28T03:41:21;5.93;;;3.22;;
79401;SDS011;68857;47.916;106.940;2023-04-28T03:43:48;5.28;;;3.53;;
79401;SDS011;68857;47.916;106.940;2023-04-28T03:46:16;6.05;;;3.95;;
79401;SDS011;68857;47.916;106.940;2023-04-28T03:48:42;6.22;;;3.10;;
79401;SDS011;68857;47.916;106.940;2023-04-28T03:51:10;4.63;;;3.08;;
79401;SDS011;68857;47.916;106.940;2023-04-28T03:53:37;4.60;;;3.28;;
79401;SDS011;68857;47.916;106.940;2023-04-28T03:56:03;4.07;;;2.78;;
79401;SDS011;68857;47.916;106.940;2023-04-28T03:58:30;4.63;;;3.13;;
79401;SDS011;68857;47.916;106.940;2023-04-28T04:00:57;9.35;;;2.88;;
79401;SDS011;68857;47.916;106.940;2023-04-28T04:03:25;5.65;;;2.88;;
79401;SDS011;68857;47.916;106.940;2023-04-28T04:05:51;4.10;;;2.42;;
79401;SDS011;68857;47.916;106.940;2023-04-28T04:08:19;3.03;;;2.33;;
79401;SDS011;68857;47.916;106.940;2023-04-28T04:10:45;5.18;;;2.67;;
79401;SDS011;68857;47.916;106.940;2023-04-28T04:13:12;5.95;;;2.53;;
79401;SDS011;68857;47.916;106.940;2023-04-28T04:15:38;5.25;;;3.10;;
79401;SDS011;68857;47.916;106.940;2023-04-28T04:18:05;4.20;;;2.78;;
79401;SDS011;68857;47.916;106.940;2023-04-28T04:20:32;3.83;;;2.90;;
79401;SDS011;68857;47.916;106.940;2023-04-28T04:22:58;4.30;;;2.20;;
79401;SDS011;68857;47.916;106.940;2023-04-28T04:25:26;4.13;;;2.72;;
79401;SDS011;68857;47.916;106.940;2023-04-28T04:27:53;6.32;;;2.28;;
79401;SDS011;68857;47.916;106.940;2023-04-28T04:30:19;2.65;;;2.33;;
79401;SDS011;68857;47.916;106.940;2023-04-28T04:32:46;3.25;;;2.03;;
79401;SDS011;68857;47.916;106.940;2023-04-28T04:35:13;2.92;;;2.50;;
79401;SDS011;68857;47.916;106.940;2023-04-28T04:37:40;4.20;;;2.47;;
79401;SDS011;68857;47.916;106.940;2023-04-28T04:40:06;2.90;;;2.60;;
79401;SDS011;68857;47.916;106.940;2023-04-28T04:42:33;3.60;;;2.63;;
79401;SDS011;68857;47.916;106.940;2023-04-28T04:44:59;4.43;;;2.58;;
79401;SDS011;68857;47.916;106.940;2023-04-28T04:47:26;2.88;;;2.17;;
79401;SDS011;68857;47.916;106.940;2023-04-28T04:49:53;5.22;;;3.10;;
79401;SDS011;68857;47.916;106.940;2023-04-28T04:52:20;3.63;;;2.72;;
79401;SDS011;68857;47.916;106.940;2023-04-28T04:54:47;4.15;;;2.10;;
79401;SDS011;68857;47.916;106.940;2023-04-28T04:57:13;4.57;;;2.60;;
79401;SDS011;68857;47.916;106.940;2023-04-28T04:59:40;3.90;;;2.83;;
79401;SDS011;68857;47.916;106.940;2023-04-28T05:02:06;4.43;;;2.25;;
79401;SDS011;68857;47.916;106.940;2023-04-28T05:04:33;4.03;;;2.28;;
79401;SDS011;68857;47.916;106.940;2023-04-28T05:06:59;3.55;;;2.55;;
79401;SDS011;68857;47.916;106.940;2023-04-28T05:09:26;5.85;;;2.88;;
79401;SDS011;68857;47.916;106.940;2023-04-28T05:11:54;3.20;;;2.13;;
79401;SDS011;68857;47.916;106.940;2023-04-28T05:14:22;4.13;;;2.67;;
79401;SDS011;68857;47.916;106.940;2023-04-28T05:16:51;6.32;;;2.97;;
79401;SDS011;68857;47.916;106.940;2023-04-28T05:19:18;4.20;;;2.88;;
79401;SDS011;68857;47.916;106.940;2023-04-28T05:21:45;4.80;;;3.10;;
79401;SDS011;68857;47.916;106.940;2023-04-28T05:24:17;7.57;;;5.22;;
79401;SDS011;68857;47.916;106.940;2023-04-28T05:26:46;7.97;;;3.67;;
79401;SDS011;68857;47.916;106.940;2023-04-28T05:29:14;5.57;;;3.47;;
79401;SDS011;68857;47.916;106.940;2023-04-28T05:31:41;8.77;;;3.38;;
79401;SDS011;68857;47.916;106.940;2023-04-28T05:34:08;7.40;;;3.28;;
79401;SDS011;68857;47.916;106.940;2023-04-28T05:36:34;8.55;;;3.53;;
79401;SDS011;68857;47.916;106.940;2023-04-28T05:39:01;6.40;;;3.30;;
79401;SDS011;68857;47.916;106.940;2023-04-28T05:41:27;5.80;;;2.90;;
79401;SDS011;68857;47.916;106.940;2023-04-28T05:43:54;6.03;;;3.15;;
79401;SDS011;68857;47.916;106.940;2023-04-28T05:46:21;5.22;;;2.92;;
79401;SDS011;68857;47.916;106.940;2023-04-28T05:48:47;4.40;;;2.53;;
79401;SDS011;68857;47.916;106.940;2023-04-28T05:51:14;6.55;;;3.50;;
79401;SDS011;68857;47.916;106.940;2023-04-28T05:53:41;5.18;;;2.92;;
79401;SDS011;68857;47.916;106.940;2023-04-28T05:56:07;5.30;;;2.28;;
79401;SDS011;68857;47.916;106.940;2023-04-28T05:58:34;3.42;;;2.00;;
79401;SDS011;68857;47.916;106.940;2023-04-28T06:01:01;4.43;;;1.92;;
79401;SDS011;68857;47.916;106.940;2023-04-28T06:03:27;5.72;;;2.60;;
79401;SDS011;68857;47.916;106.940;2023-04-28T06:05:54;8.15;;;3.35;;
79401;SDS011;68857;47.916;106.940;2023-04-28T06:08:21;5.88;;;3.92;;
79401;SDS011;68857;47.916;106.940;2023-04-28T06:10:47;6.85;;;3.38;;
79401;SDS011;68857;47.916;106.940;2023-04-28T06:13:14;4.15;;;2.00;;
79401;SDS011;68857;47.916;106.940;2023-04-28T06:15:40;5.32;;;2.83;;
79401;SDS011;68857;47.916;106.940;2023-04-28T06:18:07;3.65;;;2.40;;
79401;SDS011;68857;47.916;106.940;2023-04-28T06:20:34;4.53;;;2.65;;
79401;SDS011;68857;47.916;106.940;2023-04-28T06:23:00;4.57;;;2.25;;
79401;SDS011;68857;47.916;106.940;2023-04-28T06:25:28;3.63;;;2.17;;
79401;SDS011;68857;47.916;106.940;2023-04-28T06:27:55;3.78;;;3.25;;
79401;SDS011;68857;47.916;106.940;2023-04-28T06:30:21;3.45;;;2.42;;
79401;SDS011;68857;47.916;106.940;2023-04-28T06:32:48;3.70;;;2.20;;
79401;SDS011;68857;47.916;106.940;2023-04-28T06:35:15;3.58;;;2.47;;
79401;SDS011;68857;47.916;106.940;2023-04-28T06:37:42;3.53;;;2.55;;
79401;SDS011;68857;47.916;106.940;2023-04-28T06:40:09;3.90;;;2.15;;
79401;SDS011;68857;47.916;106.940;2023-04-28T06:42:35;5.88;;;2.95;;
79401;SDS011;68857;47.916;106.940;2023-04-28T06:45:02;3.28;;;1.85;;
79401;SDS011;68857;47.916;106.940;2023-04-28T06:47:28;3.75;;;2.08;;
79401;SDS011;68857;47.916;106.940;2023-04-28T06:49:55;3.55;;;2.10;;
79401;SDS011;68857;47.916;106.940;2023-04-28T06:52:22;2.97;;;1.60;;
79401;SDS011;68857;47.916;106.940;2023-04-28T06:54:48;4.95;;;1.80;;
79401;SDS011;68857;47.916;106.940;2023-04-28T06:57:15;4.05;;;1.80;;
79401;SDS011;68857;47.916;106.940;2023-04-28T06:59:42;3.35;;;1.75;;
79401;SDS011;68857;47.916;106.940;2023-04-28T07:02:10;2.38;;;1.70;;
79401;SDS011;68857;47.916;106.940;2023-04-28T07:04:37;3.00;;;2.00;;
79401;SDS011;68857;47.916;106.940;2023-04-28T07:07:06;3.53;;;3.22;;
79401;SDS011;68857;47.916;106.940;2023-04-28T07:09:34;3.80;;;1.75;;
79401;SDS011;68857;47.916;106.940;2023-04-28T07:12:01;3.33;;;1.80;;
79401;SDS011;68857;47.916;106.940;2023-04-28T07:14:28;3.42;;;1.52;;
79401;SDS011;68857;47.916;106.940;2023-04-28T07:16:55;3.60;;;1.95;;
79401;SDS011;68857;47.916;106.940;2023-04-28T07:19:21;1.85;;;1.38;;
79401;SDS011;68857;47.916;106.940;2023-04-28T07:21:48;3.22;;;1.42;;
79401;SDS011;68857;47.916;106.940;2023-04-28T07:24:15;2.83;;;1.63;;
79401;SDS011;68857;47.916;106.940;2023-04-28T07:26:41;3.78;;;1.38;;
79401;SDS011;68857;47.916;106.940;2023-04-28T07:29:08;2.47;;;1.98;;
79401;SDS011;68857;47.916;106.940;2023-04-28T07:31:37;2.20;;;1.55;;
79401;SDS011;68857;47.916;106.940;2023-04-28T07:34:04;2.70;;;1.30;;
79401;SDS011;68857;47.916;106.940;2023-04-28T07:36:30;3.25;;;2.05;;
79401;SDS011;68857;47.916;106.940;2023-04-28T07:38:58;2.63;;;1.52;;
79401;SDS011;68857;47.916;106.940;2023-04-28T07:41:26;2.13;;;1.30;;
79401;SDS011;68857;47.916;106.940;2023-04-28T07:43:53;2.13;;;1.40;;
79401;SDS011;68857;47.916;106.940;2023-04-28T07:46:19;2.72;;;1.80;;
79401;SDS011;68857;47.916;106.940;2023-04-28T07:48:47;2.75;;;1.52;;
79401;SDS011;68857;47.916;106.940;2023-04-28T07:51:13;2.78;;;1.10;;
79401;SDS011;68857;47.916;106.940;2023-04-28T07:53:40;2.65;;;1.40;;
79401;SDS011;68857;47.916;106.940;2023-04-28T07:56:07;3.35;;;1.20;;
79401;SDS011;68857;47.916;106.940;2023-04-28T07:58:33;3.90;;;1.23;;
79401;SDS011;68857;47.916;106.940;2023-04-28T08:01:01;4.05;;;2.28;;
79401;SDS011;68857;47.916;106.940;2023-04-28T08:03:27;2.50;;;1.10;;
79401;SDS011;68857;47.916;106.940;2023-04-28T08:05:54;3.60;;;1.20;;
79401;SDS011;68857;47.916;106.940;2023-04-28T08:08:21;1.83;;;1.17;;
79401;SDS011;68857;47.916;106.940;2023-04-28T08:10:48;2.45;;;1.20;;
79401;SDS011;68857;47.916;106.940;2023-04-28T08:13:15;2.58;;;1.10;;
79401;SDS011;68857;47.916;106.940;2023-04-28T08:15:41;4.40;;;1.42;;
79401;SDS011;68857;47.916;106.940;2023-04-28T08:18:08;1.45;;;0.93;;
79401;SDS011;68857;47.916;106.940;2023-04-28T08:20:35;1.52;;;1.08;;
79401;SDS011;68857;47.916;106.940;2023-04-28T08:23:01;3.40;;;1.30;;
79401;SDS011;68857;47.916;106.940;2023-04-28T08:25:31;1.92;;;1.20;;
79401;SDS011;68857;47.916;106.940;2023-04-28T08:27:57;2.20;;;1.42;;
79401;SDS011;68857;47.916;106.940;2023-04-28T08:30:24;2.28;;;1.10;;
79401;SDS011;68857;47.916;106.940;2023-04-28T08:32:50;1.27;;;0.80;;
79401;SDS011;68857;47.916;106.940;2023-04-28T08:35:17;1.73;;;0.95;;
79401;SDS011;68857;47.916;106.940;2023-04-28T08:37:43;2.65;;;1.20;;
79401;SDS011;68857;47.916;106.940;2023-04-28T08:40:10;1.95;;;1.15;;
79401;SDS011;68857;47.916;106.940;2023-04-28T08:42:37;1.60;;;0.80;;
79401;SDS011;68857;47.916;106.940;2023-04-28T08:45:04;1.73;;;1.10;;
79401;SDS011;68857;47.916;106.940;2023-04-28T08:47:32;2.13;;;1.00;;
79401;SDS011;68857;47.916;106.940;2023-04-28T08:50:02;3.20;;;1.27;;
79401;SDS011;68857;47.916;106.940;2023-04-28T08:52:30;3.65;;;1.02;;
79401;SDS011;68857;47.916;106.940;2023-04-28T08:54:57;2.13;;;1.35;;
79401;SDS011;68857;47.916;106.940;2023-04-28T08:57:27;3.30;;;1.05;;
79401;SDS011;68857;47.916;106.940;2023-04-28T09:00:00;2.10;;;0.93;;
79401;SDS011;68857;47.916;106.940;2023-04-28T09:02:26;1.60;;;1.15;;
79401;SDS011;68857;47.916;106.940;2023-04-28T09:04:53;3.10;;;1.30;;
79401;SDS011;68857;47.916;106.940;2023-04-28T09:07:20;2.78;;;2.30;;
79401;SDS011;68857;47.916;106.940;2023-04-28T09:09:46;4.05;;;1.40;;
79401;SDS011;68857;47.916;106.940;2023-04-28T09:12:13;1.75;;;1.20;;
79401;SDS011;68857;47.916;106.940;2023-04-28T09:14:40;3.10;;;2.65;;
79401;SDS011;68857;47.916;106.940;2023-04-28T09:17:10;2.30;;;1.67;;
79401;SDS011;68857;47.916;106.940;2023-04-28T09:19:37;3.47;;;2.00;;
79401;SDS011;68857;47.916;106.940;2023-04-28T09:22:07;1.88;;;1.20;;
79401;SDS011;68857;47.916;106.940;2023-04-28T09:24:37;2.03;;;1.20;;
79401;SDS011;68857;47.916;106.940;2023-04-28T09:27:05;2.17;;;1.13;;
79401;SDS011;68857;47.916;106.940;2023-04-28T09:29:35;2.08;;;1.10;;
79401;SDS011;68857;47.916;106.940;2023-04-28T09:32:18;2.58;;;1.33;;
79401;SDS011;68857;47.916;106.940;2023-04-28T09:37:24;5.55;;;1.33;;
79401;SDS011;68857;47.916;106.940;2023-04-28T09:39:51;2.00;;;1.25;;
79401;SDS011;68857;47.916;106.940;2023-04-28T09:45:13;2.75;;;1.52;;
79401;SDS011;68857;47.916;106.940;2023-04-28T09:47:40;2.13;;;1.00;;
79401;SDS011;68857;47.916;106.940;2023-04-28T09:50:08;1.88;;;1.05;;
79401;SDS011;68857;47.916;106.940;2023-04-28T09:52:38;2.05;;;1.63;;
79401;SDS011;68857;47.916;106.940;2023-04-28T09:55:06;3.33;;;0.90;;
79401;SDS011;68857;47.916;106.940;2023-04-28T09:57:33;3.35;;;1.30;;
79401;SDS011;68857;47.916;106.940;2023-04-28T10:00:01;1.83;;;1.20;;
79401;SDS011;68857;47.916;106.940;2023-04-28T10:02:30;2.72;;;1.10;;
79401;SDS011;68857;47.916;106.940;2023-04-28T10:04:57;2.25;;;0.90;;
79401;SDS011;68857;47.916;106.940;2023-04-28T10:07:24;3.28;;;1.08;;
79401;SDS011;68857;47.916;106.940;2023-04-28T10:09:52;2.38;;;0.80;;
79401;SDS011;68857;47.916;106.940;2023-04-28T10:12:19;3.22;;;1.00;;
79401;SDS011;68857;47.916;106.940;2023-04-28T10:14:46;1.52;;;1.00;;
79401;SDS011;68857;47.916;106.940;2023-04-28T10:17:20;2.40;;;1.27;;
79401;SDS011;68857;47.916;106.940;2023-04-28T10:19:49;3.78;;;0.98;;
79401;SDS011;68857;47.916;106.940;2023-04-28T10:27:29;2.38;;;1.23;;
79401;SDS011;68857;47.916;106.940;2023-04-28T10:32:41;3.30;;;1.80;;
79401;SDS011;68857;47.916;106.940;2023-04-28T10:38:04;2.38;;;0.90;;
79401;SDS011;68857;47.916;106.940;2023-04-28T10:40:39;2.38;;;1.33;;
79401;SDS011;68857;47.916;106.940;2023-04-28T10:43:09;2.55;;;1.13;;
79401;SDS011;68857;47.916;106.940;2023-04-28T10:46:21;3.55;;;1.73;;
79401;SDS011;68857;47.916;106.940;2023-04-28T10:54:17;2.15;;;1.15;;
79401;SDS011;68857;47.916;106.940;2023-04-28T10:56:22;2.75;;;1.00;;
79401;SDS011;68857;47.916;106.940;2023-04-28T10:58:52;1.95;;;1.27;;
79401;SDS011;68857;47.916;106.940;2023-04-28T11:03:56;2.30;;;1.50;;
79401;SDS011;68857;47.916;106.940;2023-04-28T11:08:59;2.97;;;1.52;;
79401;SDS011;68857;47.916;106.940;2023-04-28T11:11:26;3.15;;;1.60;;
79401;SDS011;68857;47.916;106.940;2023-04-28T11:13:54;3.67;;;1.42;;
79401;SDS011;68857;47.916;106.940;2023-04-28T11:16:21;3.33;;;1.90;;
79401;SDS011;68857;47.916;106.940;2023-04-28T11:19:00;5.70;;;2.38;;
79401;SDS011;68857;47.916;106.940;2023-04-28T11:21:31;4.32;;;2.22;;
79401;SDS011;68857;47.916;106.940;2023-04-28T11:23:57;5.32;;;2.65;;
79401;SDS011;68857;47.916;106.940;2023-04-28T11:26:24;6.00;;;3.35;;
79401;SDS011;68857;47.916;106.940;2023-04-28T11:28:53;4.88;;;2.55;;
79401;SDS011;68857;47.916;106.940;2023-04-28T11:31:20;5.97;;;2.20;;
79401;SDS011;68857;47.916;106.940;2023-04-28T11:33:55;4.13;;;2.25;;
79401;SDS011;68857;47.916;106.940;2023-04-28T11:36:26;6.55;;;2.85;;
79401;SDS011;68857;47.916;106.940;2023-04-28T11:38:54;7.72;;;3.15;;
79401;SDS011;68857;47.916;106.940;2023-04-28T11:41:21;7.40;;;3.08;;
79401;SDS011;68857;47.916;106.940;2023-04-28T11:43:48;7.22;;;3.38;;
79401;SDS011;68857;47.916;106.940;2023-04-28T11:46:16;12.20;;;3.55;;
79401;SDS011;68857;47.916;106.940;2023-04-28T11:48:43;7.50;;;3.95;;
79401;SDS011;68857;47.916;106.940;2023-04-28T11:51:10;6.55;;;3.40;;
79401;SDS011;68857;47.916;106.940;2023-04-28T11:53:52;7.93;;;3.63;;
79401;SDS011;68857;47.916;106.940;2023-04-28T11:56:19;7.57;;;3.55;;
79401;SDS011;68857;47.916;106.940;2023-04-28T11:58:46;10.95;;;4.15;;
79401;SDS011;68857;47.916;106.940;2023-04-28T12:01:24;8.95;;;4.10;;
79401;SDS011;68857;47.916;106.940;2023-04-28T12:03:51;10.85;;;3.90;;
79401;SDS011;68857;47.916;106.940;2023-04-28T12:06:19;10.77;;;4.50;;
79401;SDS011;68857;47.916;106.940;2023-04-28T12:08:46;8.32;;;4.47;;
79401;SDS011;68857;47.916;106.940;2023-04-28T12:11:12;11.35;;;4.45;;
79401;SDS011;68857;47.916;106.940;2023-04-28T12:13:40;9.50;;;4.03;;
79401;SDS011;68857;47.916;106.940;2023-04-28T12:16:07;10.88;;;4.65;;
79401;SDS011;68857;47.916;106.940;2023-04-28T12:18:36;8.52;;;4.13;;
79401;SDS011;68857;47.916;106.940;2023-04-28T12:21:03;10.48;;;4.63;;
79401;SDS011;68857;47.916;106.940;2023-04-28T12:23:34;11.20;;;4.90;;
79401;SDS011;68857;47.916;106.940;2023-04-28T12:26:01;8.52;;;3.67;;
79401;SDS011;68857;47.916;106.940;2023-04-28T12:28:40;8.57;;;5.20;;
79401;SDS011;68857;47.916;106.940;2023-04-28T12:31:07;7.80;;;3.85;;
79401;SDS011;68857;47.916;106.940;2023-04-28T12:33:34;9.68;;;4.80;;
79401;SDS011;68857;47.916;106.940;2023-04-28T12:36:05;11.27;;;4.43;;
79401;SDS011;68857;47.916;106.940;2023-04-28T12:38:31;8.13;;;3.70;;
79401;SDS011;68857;47.916;106.940;2023-04-28T12:40:58;12.07;;;4.63;;
79401;SDS011;68857;47.916;106.940;2023-04-28T12:43:24;8.15;;;3.75;;
79401;SDS011;68857;47.916;106.940;2023-04-28T12:45:53;8.02;;;3.28;;
79401;SDS011;68857;47.916;106.940;2023-04-28T12:48:21;7.72;;;3.97;;
79401;SDS011;68857;47.916;106.940;2023-04-28T12:50:49;7.85;;;3.65;;
79401;SDS011;68857;47.916;106.940;2023-04-28T12:53:16;9.35;;;3.65;;
79401;SDS011;68857;47.916;106.940;2023-04-28T12:55:43;7.78;;;3.55;;
79401;SDS011;68857;47.916;106.940;2023-04-28T12:58:09;8.32;;;3.60;;
79401;SDS011;68857;47.916;106.940;2023-04-28T13:00:35;7.80;;;3.67;;
79401;SDS011;68857;47.916;106.940;2023-04-28T13:03:02;7.43;;;3.63;;
79401;SDS011;68857;47.916;106.940;2023-04-28T13:05:30;8.15;;;4.47;;
79401;SDS011;68857;47.916;106.940;2023-04-28T13:07:57;9.10;;;3.70;;
79401;SDS011;68857;47.916;106.940;2023-04-28T13:10:23;7.95;;;5.40;;
79401;SDS011;68857;47.916;106.940;2023-04-28T13:12:51;6.47;;;3.63;;
79401;SDS011;68857;47.916;106.940;2023-04-28T13:15:17;7.13;;;3.53;;
79401;SDS011;68857;47.916;106.940;2023-04-28T13:17:44;8.48;;;3.42;;
79401;SDS011;68857;47.916;106.940;2023-04-28T13:20:10;7.75;;;3.88;;
79401;SDS011;68857;47.916;106.940;2023-04-28T13:22:37;6.68;;;3.40;;
79401;SDS011;68857;47.916;106.940;2023-04-28T13:25:04;7.90;;;4.95;;
79401;SDS011;68857;47.916;106.940;2023-04-28T13:27:31;6.28;;;3.33;;
79401;SDS011;68857;47.916;106.940;2023-04-28T13:29:58;10.05;;;3.70;;
79401;SDS011;68857;47.916;106.940;2023-04-28T13:32:25;6.40;;;3.10;;
79401;SDS011;68857;47.916;106.940;2023-04-28T13:34:52;7.57;;;4.03;;
79401;SDS011;68857;47.916;106.940;2023-04-28T13:37:18;7.65;;;3.80;;
79401;SDS011;68857;47.916;106.940;2023-04-28T13:39:45;6.95;;;3.47;;
79401;SDS011;68857;47.916;106.940;2023-04-28T13:42:11;7.70;;;4.15;;
79401;SDS011;68857;47.916;106.940;2023-04-28T13:44:38;6.05;;;3.33;;
79401;SDS011;68857;47.916;106.940;2023-04-28T13:47:05;10.02;;;6.82;;
79401;SDS011;68857;47.916;106.940;2023-04-28T13:49:33;8.82;;;3.88;;
79401;SDS011;68857;47.916;106.940;2023-04-28T13:52:01;9.63;;;4.82;;
79401;SDS011;68857;47.916;106.940;2023-04-28T13:54:28;12.52;;;6.07;;
79401;SDS011;68857;47.916;106.940;2023-04-28T13:56:55;8.82;;;5.63;;
79401;SDS011;68857;47.916;106.940;2023-04-28T13:59:22;10.68;;;5.05;;
79401;SDS011;68857;47.916;106.940;2023-04-28T14:01:48;12.70;;;5.35;;
79401;SDS011;68857;47.916;106.940;2023-04-28T14:04:15;10.88;;;5.28;;
79401;SDS011;68857;47.916;106.940;2023-04-28T14:06:41;11.18;;;5.90;;
79401;SDS011;68857;47.916;106.940;2023-04-28T14:09:08;10.38;;;5.10;;
79401;SDS011;68857;47.916;106.940;2023-04-28T14:11:34;15.88;;;6.55;;
79401;SDS011;68857;47.916;106.940;2023-04-28T14:14:01;11.98;;;5.65;;
79401;SDS011;68857;47.916;106.940;2023-04-28T14:16:27;18.40;;;6.80;;
79401;SDS011;68857;47.916;106.940;2023-04-28T14:18:54;11.25;;;5.70;;
79401;SDS011;68857;47.916;106.940;2023-04-28T14:21:21;12.65;;;6.97;;
79401;SDS011;68857;47.916;106.940;2023-04-28T14:23:47;15.95;;;6.47;;
79401;SDS011;68857;47.916;106.940;2023-04-28T14:26:14;16.45;;;7.57;;
79401;SDS011;68857;47.916;106.940;2023-04-28T14:28:41;15.15;;;7.65;;
79401;SDS011;68857;47.916;106.940;2023-04-28T14:31:07;19.48;;;10.18;;
79401;SDS011;68857;47.916;106.940;2023-04-28T14:33:34;19.50;;;8.40;;
79401;SDS011;68857;47.916;106.940;2023-04-28T14:36:01;18.08;;;8.13;;
79401;SDS011;68857;47.916;106.940;2023-04-28T14:38:28;16.58;;;7.45;;
79401;SDS011;68857;47.916;106.940;2023-04-28T14:40:55;16.42;;;8.75;;
79401;SDS011;68857;47.916;106.940;2023-04-28T14:43:21;17.00;;;7.32;;
79401;SDS011;68857;47.916;106.940;2023-04-28T14:45:49;15.82;;;7.63;;
79401;SDS011;68857;47.916;106.940;2023-04-28T14:48:15;21.55;;;8.73;;
79401;SDS011;68857;47.916;106.940;2023-04-28T14:50:42;17.63;;;8.50;;
79401;SDS011;68857;47.916;106.940;2023-04-28T14:53:10;17.25;;;8.57;;
79401;SDS011;68857;47.916;106.940;2023-04-28T14:55:36;20.95;;;9.95;;